Time;durP1;ratioP1;P1;durP2;ratioP2;P2;SDS_P1;SDS_P2;PMS_P1;PMS_P2;Temp;Humidity;BMP_temperature;BMP_pressure;BME280_temperature;BME280_humidity;BME280_pressure;Samples;Min_cycle;Max_cycle;Signal;HPM_P1;HPM_P2
2022/04/24 00:00:01;;;;;;;2.58;1.15;;;;;;;9.40;73.92;96008.47;4995554;28;20034;-65
2022/04/24 00:02:27;;;;;;;1.35;0.95;;;;;;;9.38;73.84;96012.03;4995415;28;20488;-65
2022/04/24 00:04:53;;;;;;;1.67;1.10;;;;;;;9.27;74.95;96020.34;4995288;28;20026;-64
2022/04/24 00:07:19;;;;;;;1.63;1.30;;;;;;;9.30;75.03;96017.59;4995349;28;20026;-64
2022/04/24 00:09:45;;;;;;;1.88;1.10;;;;;;;9.31;74.54;96027.13;4995246;28;20436;-64
2022/04/24 00:12:16;;;;;;;4.15;1.27;;;;;;;9.26;74.26;96032.53;4995361;28;20428;-66
2022/04/24 00:14:43;;;;;;;3.25;1.10;;;;;;;9.28;73.84;96027.25;4995240;28;20408;-65
2022/04/24 00:17:09;;;;;;;5.22;1.40;;;;;;;9.17;74.24;96028.53;4977630;28;20420;-62
2022/04/24 00:19:35;;;;;;;1.85;1.00;;;;;;;9.15;74.36;96032.94;4995149;28;20072;-63
2022/04/24 00:22:00;;;;;;;2.58;1.85;;;;;;;9.19;74.65;96034.56;4994778;28;20026;-62
2022/04/24 00:24:26;;;;;;;2.78;1.20;;;;;;;9.16;74.47;96033.81;4995003;28;20045;-65
2022/04/24 00:26:54;;;;;;;1.33;1.20;;;;;;;9.09;74.64;96030.59;4995062;28;20022;-63
2022/04/24 00:29:21;;;;;;;3.60;1.30;;;;;;;9.08;74.81;96037.59;4994911;28;20076;-65
2022/04/24 00:31:46;;;;;;;3.00;1.30;;;;;;;9.08;75.42;96037.59;4994826;28;20027;-66
2022/04/24 00:34:12;;;;;;;2.28;1.00;;;;;;;9.04;75.10;96041.22;4994888;28;20496;-65
2022/04/24 00:36:38;;;;;;;2.17;1.30;;;;;;;8.93;75.35;96039.03;4994816;28;20358;-65
2022/04/24 00:39:04;;;;;;;4.20;1.60;;;;;;;8.92;75.25;96032.13;4994560;28;21197;-63
2022/04/24 00:41:30;;;;;;;2.22;1.30;;;;;;;8.87;75.48;96036.66;4994437;28;20129;-66
2022/04/24 00:43:55;;;;;;;9.15;1.50;;;;;;;8.86;74.80;96034.97;4994722;28;20064;-64
2022/04/24 00:46:40;;;;;;;4.72;1.40;;;;;;;8.82;74.95;96036.00;4994521;28;20029;-64
2022/04/24 00:49:10;;;;;;;2.42;1.23;;;;;;;8.73;75.97;96045.03;4994578;28;20459;-61
2022/04/24 00:51:37;;;;;;;2.90;1.40;;;;;;;8.69;76.35;96044.31;4994395;28;20018;-62
2022/04/24 00:54:06;;;;;;;2.65;1.17;;;;;;;8.65;76.94;96050.56;4994411;28;20030;-66
2022/04/24 00:56:32;;;;;;;2.83;1.48;;;;;;;8.65;76.23;96044.47;4994468;28;20076;-64
2022/04/24 00:59:03;;;;;;;2.20;1.30;;;;;;;8.49;77.03;96046.78;4994260;28;20069;-64
2022/04/24 01:01:29;;;;;;;1.77;1.20;;;;;;;8.41;77.19;96047.94;4994307;28;20023;-62
2022/04/24 01:04:02;;;;;;;3.45;1.70;;;;;;;8.38;77.96;96055.84;4994287;28;20106;-65
2022/04/24 01:06:31;;;;;;;2.22;1.40;;;;;;;8.46;77.36;96052.97;4994304;28;20030;-63
2022/04/24 01:09:11;;;;;;;5.60;1.23;;;;;;;8.43;76.99;96043.50;4994279;28;20030;-63
2022/04/24 01:11:37;;;;;;;1.60;1.00;;;;;;;8.41;76.66;96047.06;4994254;28;20033;-64
2022/04/24 01:14:04;;;;;;;3.97;1.20;;;;;;;8.43;76.45;96047.88;4994037;28;20035;-62
2022/04/24 01:16:30;;;;;;;3.28;1.70;;;;;;;8.39;77.58;96046.25;4993995;28;20041;-65
2022/04/24 01:18:57;;;;;;;7.20;1.20;;;;;;;8.30;77.64;96040.50;4993853;28;20026;-62
2022/04/24 01:21:23;;;;;;;2.10;1.30;;;;;;;8.24;77.89;96047.72;4993996;28;20073;-65
2022/04/24 01:23:49;;;;;;;1.33;0.90;;;;;;;8.19;78.18;96037.44;4994009;28;20030;-64
2022/04/24 01:26:14;;;;;;;4.65;1.30;;;;;;;8.24;77.92;96040.72;4994146;28;20093;-63
2022/04/24 01:28:40;;;;;;;6.30;1.52;;;;;;;8.28;77.65;96034.47;4994034;28;20034;-65
2022/04/24 01:31:05;;;;;;;3.88;1.30;;;;;;;8.28;77.02;96041.47;4993847;28;20106;-61
2022/04/24 01:33:31;;;;;;;1.95;1.30;;;;;;;8.22;77.84;96039.94;4993174;28;20034;-66
2022/04/24 01:35:57;;;;;;;1.55;1.10;;;;;;;8.22;78.55;96045.97;4993826;28;20046;-62
2022/04/24 01:38:23;;;;;;;2.42;1.20;;;;;;;8.26;78.55;96041.53;4993844;28;20113;-65
2022/04/24 01:40:48;;;;;;;1.38;1.10;;;;;;;8.31;77.90;96044.78;4993556;28;20109;-62
2022/04/24 01:43:16;;;;;;;2.05;1.20;;;;;;;8.35;77.62;96042.94;4993824;28;20072;-63
2022/04/24 01:45:44;;;;;;;5.35;1.15;;;;;;;8.32;77.19;96051.72;4993681;28;20418;-62
2022/04/24 01:48:09;;;;;;;2.00;1.60;;;;;;;8.36;76.26;96049.00;4993634;28;20470;-64
2022/04/24 01:50:35;;;;;;;1.90;1.20;;;;;;;8.27;76.38;96040.63;4993654;28;20033;-65
2022/04/24 01:53:01;;;;;;;1.33;0.93;;;;;;;8.28;76.83;96044.91;4993533;28;20030;-63
2022/04/24 01:55:27;;;;;;;1.85;1.13;;;;;;;8.29;77.31;96050.97;4993637;28;20034;-65
2022/04/24 01:57:53;;;;;;;9.27;1.70;;;;;;;8.22;77.53;96047.75;4993624;28;20030;-65
2022/04/24 02:00:18;;;;;;;1.98;1.30;;;;;;;8.17;77.89;96047.06;4993664;28;20469;-65
2022/04/24 02:02:45;;;;;;;1.30;1.00;;;;;;;8.24;78.03;96047.72;4993630;28;20080;-66
2022/04/24 02:05:10;;;;;;;5.18;1.00;;;;;;;8.27;77.72;96050.19;4993594;28;20492;-64
2022/04/24 02:07:36;;;;;;;1.65;1.15;;;;;;;8.17;77.57;96052.28;4993539;28;20065;-66
2022/04/24 02:10:01;;;;;;;3.03;1.45;;;;;;;8.13;78.27;96061.13;4993394;28;20029;-65
2022/04/24 02:12:27;;;;;;;2.08;1.25;;;;;;;8.16;78.43;96054.03;4993515;28;20031;-65
2022/04/24 02:14:53;;;;;;;3.22;1.30;;;;;;;8.21;77.96;96056.47;4993591;28;20031;-63
2022/04/24 02:17:18;;;;;;;2.78;1.10;;;;;;;8.21;77.59;96046.91;4993376;28;20026;-66
2022/04/24 02:19:44;;;;;;;1.35;1.25;;;;;;;8.18;77.37;96040.94;4993392;28;20055;-61
2022/04/24 02:22:09;;;;;;;4.22;1.15;;;;;;;8.16;77.11;96042.78;4975950;28;20026;-64
2022/04/24 02:24:35;;;;;;;2.00;1.20;;;;;;;8.12;77.23;96043.78;4993404;28;20031;-65
2022/04/24 02:27:00;;;;;;;2.67;1.00;;;;;;;8.02;77.99;96051.94;4993391;28;20026;-65
2022/04/24 02:29:27;;;;;;;3.70;1.67;;;;;;;7.94;78.39;96041.78;4993341;28;20015;-66
2022/04/24 02:31:53;;;;;;;2.50;1.25;;;;;;;7.92;78.37;96045.34;4993341;28;20449;-64
2022/04/24 02:34:18;;;;;;;2.67;1.00;;;;;;;7.88;78.45;96036.78;4993321;28;20098;-63
2022/04/24 02:36:44;;;;;;;2.33;1.30;;;;;;;7.82;78.55;96047.41;4993332;28;20089;-64
2022/04/24 02:39:09;;;;;;;1.10;1.00;;;;;;;7.80;78.49;96042.25;4993244;28;20137;-64
2022/04/24 02:41:35;;;;;;;4.18;1.25;;;;;;;7.75;78.57;96036.38;4993051;28;20046;-66
2022/04/24 02:44:01;;;;;;;3.63;1.13;;;;;;;7.76;78.34;96045.88;4993684;28;20059;-65
2022/04/24 02:46:26;;;;;;;4.18;1.10;;;;;;;7.77;78.44;96051.94;4996859;28;20072;-61
2022/04/24 02:48:52;;;;;;;3.80;1.20;;;;;;;7.78;78.86;96053.63;4996877;28;20027;-65
2022/04/24 02:51:17;;;;;;;1.92;1.20;;;;;;;7.76;78.90;96063.25;4996716;28;20104;-64
2022/04/24 02:53:43;;;;;;;4.53;1.52;;;;;;;7.71;78.90;96056.44;4996630;28;20088;-65
2022/04/24 02:56:08;;;;;;;2.00;1.58;;;;;;;7.67;79.03;96064.41;4996639;28;20512;-61
2022/04/24 02:58:34;;;;;;;1.70;1.23;;;;;;;7.61;79.27;96064.63;4996582;28;20034;-66
2022/04/24 03:01:00;;;;;;;1.30;1.20;;;;;;;7.61;79.55;96069.84;4996643;28;20238;-62
2022/04/24 03:03:25;;;;;;;2.17;1.15;;;;;;;7.63;79.19;96075.84;4996550;28;20097;-65
2022/04/24 03:05:51;;;;;;;4.10;1.30;;;;;;;7.66;79.00;96071.38;4996503;28;20037;-66
2022/04/24 03:08:18;;;;;;;3.03;1.35;;;;;;;7.67;78.50;96075.69;4996360;28;20425;-64
2022/04/24 03:10:44;;;;;;;1.42;1.08;;;;;;;7.70;78.49;96082.53;4996369;28;20109;-65
2022/04/24 03:13:10;;;;;;;4.93;1.45;;;;;;;7.63;78.23;96083.63;4996361;28;20557;-62
2022/04/24 03:15:37;;;;;;;3.50;1.65;;;;;;;7.55;79.09;96083.88;4996374;28;20032;-64
2022/04/24 03:18:04;;;;;;;3.33;1.52;;;;;;;7.55;79.57;96089.09;4996327;28;20085;-61
2022/04/24 03:20:30;;;;;;;4.00;1.40;;;;;;;7.59;78.97;96096.75;4996178;28;20030;-62
2022/04/24 03:22:55;;;;;;;4.45;1.55;;;;;;;7.61;78.50;96103.69;4996194;28;20552;-65
2022/04/24 03:25:21;;;;;;;1.73;1.15;;;;;;;7.62;78.46;96107.97;4996152;28;20026;-63
2022/04/24 03:27:47;;;;;;;4.10;1.40;;;;;;;7.59;78.78;96108.94;4996084;28;20065;-63
2022/04/24 03:30:13;;;;;;;1.92;1.48;;;;;;;7.58;78.89;96102.88;4996112;28;20105;-65
2022/04/24 03:32:39;;;;;;;3.28;1.73;;;;;;;7.49;79.36;96108.38;4996048;28;20026;-65
2022/04/24 03:35:09;;;;;;;4.95;1.48;;;;;;;7.50;79.48;96111.84;4995798;28;20022;-63
2022/04/24 03:37:38;;;;;;;2.35;1.50;;;;;;;7.57;79.32;96114.19;4995840;28;20026;-64
2022/04/24 03:40:05;;;;;;;4.28;1.63;;;;;;;7.61;79.38;96116.69;4995579;28;20050;-65
2022/04/24 03:42:32;;;;;;;1.63;1.33;;;;;;;7.67;79.41;96125.16;4995874;28;20042;-60
2022/04/24 03:44:57;;;;;;;2.22;1.70;;;;;;;7.62;80.72;96131.41;4995846;28;20050;-64
2022/04/24 03:47:23;;;;;;;2.08;1.20;;;;;;;7.67;80.67;96132.97;4995570;28;20057;-63
2022/04/24 03:49:50;;;;;;;4.32;1.42;;;;;;;7.73;80.42;96137.09;4995626;28;20077;-62
2022/04/24 03:52:15;;;;;;;2.92;1.30;;;;;;;7.74;79.88;96133.63;4995610;28;20035;-63
2022/04/24 03:54:41;;;;;;;3.13;1.50;;;;;;;7.79;80.01;96136.03;4995605;28;20243;-62
2022/04/24 03:57:07;;;;;;;5.05;1.52;;;;;;;7.86;80.68;96136.69;4994938;28;20018;-64
2022/04/24 03:59:33;;;;;;;3.55;1.60;;;;;;;8.12;80.80;96138.41;4995498;28;20550;-64
2022/04/24 04:01:58;;;;;;;2.60;1.50;;;;;;;8.50;80.55;96148.41;4995491;28;20023;-63
2022/04/24 04:04:25;;;;;;;3.45;1.85;;;;;;;8.90;79.47;96145.25;4995454;28;20034;-65
2022/04/24 04:06:51;;;;;;;3.13;1.50;;;;;;;9.31;78.53;96150.66;4995355;28;20489;-62
2022/04/24 04:09:16;;;;;;;1.75;1.48;;;;;;;9.72;76.75;96149.91;4995404;28;20034;-62
2022/04/24 04:11:42;;;;;;;2.03;1.38;;;;;;;10.13;74.73;96144.75;4995328;28;20029;-63
2022/04/24 04:14:08;;;;;;;5.47;1.50;;;;;;;10.55;72.84;96154.31;4995112;28;20026;-62
2022/04/24 04:16:34;;;;;;;4.03;1.60;;;;;;;10.97;71.78;96152.47;4995221;28;20102;-65
2022/04/24 04:18:59;;;;;;;1.77;1.20;;;;;;;11.42;69.64;96151.28;4995112;28;20161;-62
2022/04/24 04:21:25;;;;;;;1.77;1.20;;;;;;;11.83;69.13;96158.91;4995080;28;20030;-64
2022/04/24 04:23:50;;;;;;;1.55;1.30;;;;;;;12.30;67.63;96153.16;4995037;28;20493;-65
2022/04/24 04:26:17;;;;;;;2.60;1.63;;;;;;;12.74;65.64;96160.50;4995058;28;20477;-64
2022/04/24 04:28:46;;;;;;;3.22;1.20;;;;;;;13.17;64.04;96159.13;4995009;28;20485;-63
2022/04/24 04:31:15;;;;;;;2.72;1.23;;;;;;;13.58;62.39;96168.28;4994819;28;20041;-61
2022/04/24 04:33:41;;;;;;;2.65;0.98;;;;;;;13.93;61.74;96163.78;4994851;28;20023;-64
2022/04/24 04:36:08;;;;;;;1.17;0.93;;;;;;;14.32;61.08;96167.63;4994838;28;20030;-63
2022/04/24 04:38:33;;;;;;;2.75;1.20;;;;;;;14.75;60.53;96172.09;4994675;28;20035;-63
2022/04/24 04:40:59;;;;;;;3.47;1.08;;;;;;;15.22;59.76;96171.06;4994490;28;20061;-63
2022/04/24 04:43:26;;;;;;;7.05;1.30;;;;;;;15.59;58.72;96174.00;4994704;28;20045;-62
2022/04/24 04:45:52;;;;;;;2.40;1.40;;;;;;;15.97;56.44;96179.56;4994428;28;20061;-64
2022/04/24 04:48:18;;;;;;;3.25;1.10;;;;;;;16.24;55.16;96178.69;4994652;28;20050;-64
2022/04/24 04:50:44;;;;;;;3.10;1.30;;;;;;;16.50;54.97;96182.19;4994359;28;20030;-62
2022/04/24 04:53:10;;;;;;;5.18;1.40;;;;;;;16.67;54.50;96181.06;4994423;28;20509;-63
2022/04/24 04:55:35;;;;;;;1.77;0.95;;;;;;;16.89;54.11;96184.84;4994454;28;20062;-61
2022/04/24 04:58:01;;;;;;;3.10;1.05;;;;;;;17.22;53.73;96184.44;4994291;28;20102;-62
2022/04/24 05:00:27;;;;;;;2.33;1.10;;;;;;;17.54;53.45;96186.56;4994233;28;20485;-63
2022/04/24 05:02:53;;;;;;;7.00;1.42;;;;;;;17.82;53.26;96184.56;4994456;28;20026;-63
2022/04/24 05:05:19;;;;;;;1.67;1.08;;;;;;;18.06;52.32;96181.91;4994339;28;20073;-62
2022/04/24 05:07:44;;;;;;;3.78;1.15;;;;;;;18.40;52.08;96188.31;4993440;28;20027;-64
2022/04/24 05:10:10;;;;;;;1.88;1.35;;;;;;;18.71;53.42;96183.34;4993986;28;20445;-64
2022/04/24 05:12:36;;;;;;;6.15;1.10;;;;;;;18.99;49.99;96177.72;4994278;28;20481;-65
2022/04/24 05:15:11;;;;;;;1.33;0.98;;;;;;;19.31;49.88;96179.66;4994196;28;20093;-64
2022/04/24 05:17:37;;;;;;;1.65;1.08;;;;;;;19.59;50.87;96176.63;4993997;28;20078;-63
2022/04/24 05:20:04;;;;;;;4.43;1.20;;;;;;;19.83;50.04;96174.63;4994063;28;20080;-62
2022/04/24 05:22:30;;;;;;;3.95;1.10;;;;;;;20.10;50.32;96169.03;4960601;28;20084;-62
2022/04/24 05:24:56;;;;;;;2.88;0.90;;;;;;;20.43;50.78;96172.47;4993914;28;20031;-63
2022/04/24 05:27:22;;;;;;;1.17;1.00;;;;;;;20.68;49.73;96167.75;4993828;28;20038;-63
2022/04/24 05:29:48;;;;;;;1.83;1.50;;;;;;;20.96;50.08;96166.22;4993873;28;20022;-63
2022/04/24 05:32:15;;;;;;;1.77;1.48;;;;;;;21.30;48.28;96169.59;4993905;28;20038;-62
2022/04/24 05:34:40;;;;;;;2.45;1.40;;;;;;;21.67;47.85;96160.19;4993827;28;20026;-62
2022/04/24 05:37:06;;;;;;;4.03;1.08;;;;;;;21.97;47.07;96158.41;4993761;28;20358;-61
2022/04/24 05:39:33;;;;;;;2.70;1.05;;;;;;;22.13;45.67;96159.69;4993486;28;20034;-62
2022/04/24 05:41:59;;;;;;;5.35;1.90;;;;;;;22.38;44.76;96166.25;4976426;28;20443;-61
2022/04/24 05:44:24;;;;;;;3.13;1.80;;;;;;;22.54;44.42;96162.16;4993729;28;20033;-61
2022/04/24 05:46:50;;;;;;;3.53;1.30;;;;;;;22.77;44.63;96167.19;4993631;28;20380;-63
2022/04/24 05:49:17;;;;;;;5.38;1.42;;;;;;;22.98;43.56;96161.66;4993625;28;20503;-63
2022/04/24 05:51:43;;;;;;;4.82;1.67;;;;;;;23.28;42.86;96165.06;4993855;28;20105;-63
2022/04/24 05:54:11;;;;;;;2.17;1.20;;;;;;;22.99;44.10;96168.66;4993654;28;20591;-63
2022/04/24 05:56:41;;;;;;;4.60;1.40;;;;;;;23.19;44.85;96166.78;4993588;28;20031;-62
2022/04/24 05:59:08;;;;;;;2.53;1.45;;;;;;;23.62;42.97;96163.63;4993517;28;20026;-64
2022/04/24 06:01:38;;;;;;;2.30;1.25;;;;;;;23.87;42.10;96161.22;4993545;28;20035;-62
2022/04/24 06:04:04;;;;;;;1.65;1.13;;;;;;;23.90;41.28;96168.13;4993574;28;20049;-62
2022/04/24 06:06:31;;;;;;;5.60;1.75;;;;;;;23.83;41.01;96167.84;4993562;28;20077;-63
2022/04/24 06:08:57;;;;;;;2.50;1.55;;;;;;;24.19;42.23;96159.91;4993313;28;20081;-63
2022/04/24 06:11:24;;;;;;;2.70;1.60;;;;;;;24.34;41.10;96162.88;4993408;28;20022;-61
2022/04/24 06:13:49;;;;;;;3.20;1.10;;;;;;;24.66;40.21;96162.44;4993462;28;20030;-62
2022/04/24 06:16:15;;;;;;;2.05;1.50;;;;;;;24.92;37.86;96161.63;4993533;28;20030;-62
2022/04/24 06:18:41;;;;;;;2.35;1.10;;;;;;;25.01;38.14;96165.19;4993344;28;20027;-62
2022/04/24 06:21:06;;;;;;;2.47;1.35;;;;;;;25.07;38.00;96164.56;4997351;28;20030;-62
2022/04/24 06:23:32;;;;;;;4.55;2.35;;;;;;;25.19;37.16;96165.94;4997235;28;20022;-63
2022/04/24 06:25:58;;;;;;;3.70;1.48;;;;;;;25.32;36.67;96162.84;4997211;28;20025;-63
2022/04/24 06:28:25;;;;;;;3.40;1.10;;;;;;;25.43;36.29;96169.72;4997175;28;20022;-63
2022/04/24 06:30:51;;;;;;;3.10;1.90;;;;;;;25.47;36.26;96168.41;4997146;28;20019;-61
2022/04/24 06:33:17;;;;;;;6.13;1.35;;;;;;;25.07;35.82;96165.38;4997221;28;20034;-60
2022/04/24 06:35:47;;;;;;;3.33;1.58;;;;;;;24.92;37.99;96161.63;4997023;28;20397;-62
2022/04/24 06:38:13;;;;;;;4.00;1.55;;;;;;;25.30;36.66;96162.16;4996853;28;20026;-60
2022/04/24 06:40:39;;;;;;;4.75;1.73;;;;;;;25.34;37.19;96170.69;4996674;28;20461;-62
2022/04/24 06:43:07;;;;;;;3.75;1.48;;;;;;;25.74;35.81;96169.19;4979431;28;20501;-61
2022/04/24 06:45:39;;;;;;;6.57;1.80;;;;;;;25.99;35.48;96165.75;4996775;28;20110;-62
2022/04/24 06:48:10;;;;;;;5.35;1.90;;;;;;;26.05;34.67;96173.13;4996880;28;20362;-63
2022/04/24 06:50:39;;;;;;;4.25;1.98;;;;;;;26.01;35.08;96173.59;4996724;28;20026;-61
2022/04/24 06:53:09;;;;;;;5.63;1.80;;;;;;;26.14;34.21;96173.13;4996600;28;20492;-61
2022/04/24 06:55:38;;;;;;;6.68;2.00;;;;;;;26.35;32.58;96180.72;4996811;28;20097;-63
2022/04/24 06:58:06;;;;;;;8.13;2.00;;;;;;;26.35;32.15;96181.56;4996568;28;20026;-63
2022/04/24 07:00:36;;;;;;;8.38;2.60;;;;;;;26.56;33.11;96182.03;4996526;28;20044;-62
2022/04/24 07:03:18;;;;;;;3.40;2.22;;;;;;;26.53;34.59;96180.53;4996517;28;20035;-63
2022/04/24 07:05:45;;;;;;;6.72;2.17;;;;;;;26.59;32.68;96179.03;4996553;28;20034;-63
2022/04/24 07:08:13;;;;;;;7.47;2.35;;;;;;;26.59;33.68;96187.06;4996531;28;20026;-63
2022/04/24 07:10:40;;;;;;;8.55;2.58;;;;;;;26.66;32.87;96174.66;4979006;28;20018;-63
2022/04/24 07:13:06;;;;;;;9.35;2.22;;;;;;;26.73;31.90;96174.84;4996235;28;20029;-64
2022/04/24 07:15:35;;;;;;;5.60;2.15;;;;;;;26.56;32.56;96176.69;4996330;28;20033;-63
2022/04/24 07:18:02;;;;;;;8.13;2.03;;;;;;;26.45;32.33;96181.38;4996231;28;20026;-65
2022/04/24 07:20:29;;;;;;;10.98;2.40;;;;;;;26.49;32.91;96177.34;4996253;28;20033;-62
2022/04/24 07:23:03;;;;;;;10.98;2.35;;;;;;;26.50;33.88;96183.56;4996347;28;20495;-62
2022/04/24 07:25:40;;;;;;;14.75;2.90;;;;;;;26.62;34.50;96182.22;4996200;28;20117;-63
2022/04/24 07:28:13;;;;;;;8.77;2.65;;;;;;;26.51;33.62;96182.53;4996295;28;20030;-62
2022/04/24 07:30:39;;;;;;;14.88;3.20;;;;;;;26.42;33.49;96181.72;4995348;28;20495;-62
2022/04/24 07:33:05;;;;;;;12.13;2.85;;;;;;;25.93;35.19;96188.66;4996074;28;20018;-62
2022/04/24 07:35:36;;;;;;;11.55;2.30;;;;;;;25.98;33.37;96191.69;4996124;28;20034;-63
2022/04/24 07:38:03;;;;;;;14.50;3.17;;;;;;;26.11;32.42;96191.22;4995954;28;20350;-65
2022/04/24 07:40:31;;;;;;;8.80;2.30;;;;;;;26.17;33.89;96187.03;4995720;28;20085;-62
2022/04/24 07:42:58;;;;;;;12.60;2.70;;;;;;;26.11;34.40;96193.03;4995805;28;20034;-62
2022/04/24 07:45:26;;;;;;;13.65;2.45;;;;;;;25.80;34.20;96182.94;4996059;28;20050;-62
2022/04/24 07:47:54;;;;;;;8.25;2.45;;;;;;;25.98;34.39;96188.19;4995766;28;20023;-65
2022/04/24 07:50:24;;;;;;;9.07;2.63;;;;;;;25.90;36.49;96194.34;4995681;28;20026;-63
2022/04/24 07:52:50;;;;;;;12.18;2.53;;;;;;;25.56;34.96;96190.72;4995891;28;20026;-61
2022/04/24 07:55:22;;;;;;;13.85;3.05;;;;;;;25.78;33.04;96187.59;4995698;28;20022;-66
2022/04/24 07:57:50;;;;;;;12.40;2.58;;;;;;;25.64;36.00;96200.63;4995682;28;20030;-63
2022/04/24 08:00:17;;;;;;;10.80;2.45;;;;;;;25.71;34.81;96193.59;4995596;28;20547;-63
2022/04/24 08:02:56;;;;;;;7.82;2.25;;;;;;;25.62;34.91;96191.94;4995599;28;20472;-63
2022/04/24 08:05:26;;;;;;;10.10;2.15;;;;;;;25.78;36.16;96196.50;4995450;28;20088;-62
2022/04/24 08:07:53;;;;;;;12.07;2.13;;;;;;;25.57;32.70;96196.88;4995571;28;20435;-66
2022/04/24 08:10:22;;;;;;;7.35;2.47;;;;;;;25.48;33.10;96201.38;4995514;28;20036;-62
2022/04/24 08:12:48;;;;;;;17.77;2.92;;;;;;;25.43;35.12;96193.81;4995403;28;20097;-64
2022/04/24 08:15:15;;;;;;;6.95;2.22;;;;;;;25.23;33.25;96193.22;4995204;28;20022;-62
2022/04/24 08:17:41;;;;;;;6.95;2.30;;;;;;;25.20;35.51;96189.03;4995169;28;20110;-60
2022/04/24 08:20:09;;;;;;;8.32;2.40;;;;;;;24.81;34.45;96184.94;4995324;28;20034;-63
2022/04/24 08:22:41;;;;;;;10.55;2.42;;;;;;;24.30;36.27;96171.34;4995201;28;20033;-64
2022/04/24 08:25:09;;;;;;;8.30;2.10;;;;;;;24.32;35.98;96164.84;4995111;28;20057;-64
2022/04/24 08:27:36;;;;;;;9.73;2.63;;;;;;;24.54;37.63;96167.19;4995101;28;20045;-62
2022/04/24 08:30:04;;;;;;;9.00;2.25;;;;;;;24.60;36.25;96174.59;4994930;28;20026;-64
2022/04/24 08:32:31;;;;;;;8.57;2.65;;;;;;;24.81;38.92;96162.69;4995156;28;20050;-62
2022/04/24 08:34:57;;;;;;;6.95;2.38;;;;;;;24.91;34.34;96166.13;4995006;28;20081;-64
2022/04/24 08:37:26;;;;;;;13.10;2.47;;;;;;;24.94;33.83;96154.28;4994789;28;20019;-63
2022/04/24 08:39:53;;;;;;;5.13;2.17;;;;;;;25.02;37.53;96162.38;4994655;28;20046;-63
2022/04/24 08:42:21;;;;;;;9.32;2.85;;;;;;;25.09;38.90;96152.69;4994977;28;20022;-63
2022/04/24 08:44:57;;;;;;;14.38;3.25;;;;;;;25.05;36.35;96146.00;4994727;28;20029;-63
2022/04/24 08:47:25;;;;;;;8.35;2.80;;;;;;;24.92;35.00;96149.09;4994686;28;20073;-64
2022/04/24 08:49:55;;;;;;;12.15;2.97;;;;;;;24.93;34.30;96147.25;4994681;28;20436;-64
2022/04/24 08:52:22;;;;;;;9.30;2.75;;;;;;;24.66;36.90;96136.53;4994675;28;20022;-62
2022/04/24 08:54:50;;;;;;;10.77;2.38;;;;;;;24.76;36.14;96135.59;4994504;28;20058;-63
2022/04/24 08:57:17;;;;;;;10.20;2.10;;;;;;;24.76;36.92;96138.25;4994552;28;20030;-61
2022/04/24 08:59:44;;;;;;;10.80;2.05;;;;;;;24.70;38.26;96140.56;4994538;28;20037;-63
2022/04/24 09:02:10;;;;;;;10.18;2.35;;;;;;;24.76;37.76;96132.91;4994357;28;20469;-65
2022/04/24 09:04:39;;;;;;;9.35;2.65;;;;;;;25.05;38.90;96135.28;4994392;28;20029;-64
2022/04/24 09:07:07;;;;;;;9.20;2.60;;;;;;;25.15;36.31;96135.16;4994224;28;20459;-65
2022/04/24 09:09:42;;;;;;;9.63;2.60;;;;;;;25.23;37.78;96145.06;4994417;28;20042;-63
2022/04/24 09:12:14;;;;;;;11.60;2.90;;;;;;;25.15;35.52;96128.97;4994356;28;20030;-66
2022/04/24 09:14:40;;;;;;;7.50;2.13;;;;;;;25.15;34.37;96132.50;4994171;28;20030;-65
2022/04/24 09:17:07;;;;;;;9.38;2.28;;;;;;;24.67;35.42;96124.00;4994030;28;20022;-63
2022/04/24 09:19:36;;;;;;;12.68;2.55;;;;;;;24.45;36.14;96127.06;4994027;28;20080;-66
2022/04/24 09:22:05;;;;;;;11.57;2.38;;;;;;;24.22;35.09;96124.88;4994137;28;20030;-66
2022/04/24 09:24:52;;;;;;;12.48;2.88;;;;;;;24.20;39.52;96126.03;4994223;28;20053;-64
2022/04/24 09:27:34;;;;;;;17.63;3.42;;;;;;;23.84;36.80;96119.66;4994015;28;20405;-62
2022/04/24 09:30:11;;;;;;;15.27;3.33;;;;;;;23.55;37.67;96122.53;4993911;28;20026;-63
2022/04/24 09:32:51;;;;;;;10.88;3.03;;;;;;;23.34;39.41;96119.13;4993778;28;20038;-62
2022/04/24 09:35:36;;;;;;;11.00;2.55;;;;;;;23.14;40.06;96125.53;4993833;28;20397;-62
2022/04/24 09:38:13;;;;;;;15.50;3.20;;;;;;;23.20;38.65;96120.44;4993770;28;20093;-64
2022/04/24 09:40:44;;;;;;;8.38;2.50;;;;;;;23.08;40.16;96114.47;4993523;28;20077;-66
2022/04/24 09:43:15;;;;;;;16.35;3.00;;;;;;;23.23;40.61;96106.81;4993861;28;20027;-64
2022/04/24 09:45:46;;;;;;;12.52;2.80;;;;;;;23.44;42.91;96110.22;4993790;28;20022;-64
2022/04/24 09:48:14;;;;;;;14.20;2.90;;;;;;;23.49;40.47;96102.63;4993741;28;20022;-64
2022/04/24 09:50:41;;;;;;;12.07;3.08;;;;;;;23.54;41.85;96104.84;4993671;28;20026;-66
2022/04/24 09:53:11;;;;;;;15.88;3.40;;;;;;;23.44;39.46;96102.22;4993630;28;20030;-63
2022/04/24 09:55:39;;;;;;;11.60;2.95;;;;;;;23.47;38.50;96100.09;4993266;28;20030;-65
2022/04/24 09:58:08;;;;;;;9.35;2.72;;;;;;;23.75;40.62;96091.19;4993685;28;20038;-63
2022/04/24 10:00:34;;;;;;;14.48;2.85;;;;;;;23.75;40.08;96095.72;4993706;28;20026;-64
2022/04/24 10:03:03;;;;;;;9.18;3.08;;;;;;;23.90;39.13;96101.34;4993478;28;20508;-64
2022/04/24 10:05:31;;;;;;;10.80;3.05;;;;;;;23.91;40.69;96103.03;4993551;28;20038;-63
2022/04/24 10:07:57;;;;;;;21.70;3.47;;;;;;;24.08;40.86;96098.69;4993503;28;20099;-64
2022/04/24 10:10:23;;;;;;;19.52;3.47;;;;;;;24.05;38.36;96088.31;4993561;28;20480;-62
2022/04/24 10:12:51;;;;;;;9.20;2.60;;;;;;;24.31;41.01;96085.69;4993579;28;20080;-67
2022/04/24 10:15:19;;;;;;;17.13;3.47;;;;;;;24.41;35.03;96093.59;4993489;28;20030;-62
2022/04/24 10:18:18;;;;;;;18.40;3.22;;;;;;;24.53;37.48;96088.81;4993256;28;20030;-66
2022/04/24 10:21:08;;;;;;;11.70;2.95;;;;;;;24.28;40.16;96080.66;4993484;28;20093;-63
2022/04/24 10:23:36;;;;;;;14.40;3.38;;;;;;;24.32;43.67;96081.19;4993362;28;20469;-65
2022/04/24 10:26:04;;;;;;;15.93;2.55;;;;;;;24.45;40.24;96089.63;4993208;28;20042;-65
2022/04/24 10:28:40;;;;;;;14.95;3.50;;;;;;;24.56;38.92;96093.88;4993369;28;20026;-62
2022/04/24 10:31:09;;;;;;;12.15;3.17;;;;;;;24.68;40.30;96098.97;4993346;28;20026;-65
2022/04/24 10:33:36;;;;;;;12.98;2.60;;;;;;;24.45;39.76;96083.44;4993332;28;20035;-64
2022/04/24 10:36:13;;;;;;;9.77;3.40;;;;;;;24.27;39.93;96087.00;4993241;28;20014;-63
2022/04/24 10:38:57;;;;;;;15.48;3.83;;;;;;;24.29;39.77;96086.84;4993176;28;20042;-63
2022/04/24 10:41:25;;;;;;;13.27;2.50;;;;;;;24.56;41.21;96087.69;4993020;28;20061;-64
2022/04/24 10:43:56;;;;;;;14.70;3.03;;;;;;;24.71;38.05;96080.75;4993164;28;20022;-63
2022/04/24 10:46:29;;;;;;;12.02;3.17;;;;;;;24.75;38.29;96081.28;4993289;28;20084;-64
2022/04/24 10:49:12;;;;;;;11.80;2.70;;;;;;;24.54;37.09;96079.00;4993168;28;20026;-63
2022/04/24 10:51:40;;;;;;;15.07;2.92;;;;;;;24.54;38.94;96071.81;4993187;28;20061;-64
2022/04/24 10:54:11;;;;;;;20.42;3.53;;;;;;;24.58;38.99;96075.00;4993072;28;20035;-62
2022/04/24 10:56:37;;;;;;;;;;;;;;;24.42;40.37;96073.06;4993600;28;20061;-64
2022/04/24 10:59:15;;;;;;;19.92;3.05;;;;;;;24.38;39.73;96069.84;4992963;28;20012;-64
2022/04/24 11:01:50;;;;;;;9.48;2.88;;;;;;;24.54;39.86;96062.94;4993234;28;20042;-62
2022/04/24 11:04:17;;;;;;;18.15;3.00;;;;;;;24.56;38.41;96067.13;4993170;28;20030;-63
2022/04/24 11:06:55;;;;;;;19.75;3.25;;;;;;;24.26;40.57;96058.59;4994648;28;20112;-61
2022/04/24 11:09:22;;;;;;;10.63;2.58;;;;;;;24.42;41.52;96059.72;4996533;28;20026;-65
2022/04/24 11:11:50;;;;;;;9.57;2.90;;;;;;;24.56;39.92;96061.78;4996596;28;20125;-64
2022/04/24 11:14:28;;;;;;;14.73;2.97;;;;;;;24.61;39.57;96061.31;4996487;28;20387;-62
2022/04/24 11:16:59;;;;;;;8.95;2.97;;;;;;;24.73;37.91;96062.72;4996498;28;20034;-61
2022/04/24 11:19:27;;;;;;;13.13;3.05;;;;;;;24.67;34.48;96063.38;4996330;28;20038;-65
2022/04/24 11:21:58;;;;;;;15.48;3.22;;;;;;;24.13;34.69;96051.00;4996308;28;20080;-63
2022/04/24 11:24:30;;;;;;;8.85;2.38;;;;;;;23.81;35.77;96052.38;4996297;28;20049;-62
2022/04/24 11:26:57;;;;;;;16.50;2.90;;;;;;;23.97;39.25;96049.84;4996174;28;20034;-61
2022/04/24 11:29:23;;;;;;;14.25;2.88;;;;;;;24.06;37.03;96040.06;4996143;28;20512;-64
2022/04/24 11:31:54;;;;;;;12.13;2.78;;;;;;;24.33;38.96;96045.47;4996190;28;20488;-63
2022/04/24 11:34:24;;;;;;;;;;;;;;;24.25;35.51;96037.38;4996572;28;20058;-65
2022/04/24 11:36:54;;;;;;;14.73;3.53;;;;;;;24.20;35.12;96046.69;4996091;28;19937;-64